Time;durP1;ratioP1;P1;durP2;ratioP2;P2;SDS_P1;SDS_P2;PMS_P1;PMS_P2;Temp;Humidity;BMP_temperature;BMP_pressure;BME280_temperature;BME280_humidity;BME280_pressure;Samples;Min_cycle;Max_cycle;Signal;HPM_P1;HPM_P2
2021/12/08 00:01:01;;;;;;;6.83;3.67;;;;;;;3.20;100.00;99191.91;5010835;28;20026;-57
2021/12/08 00:03:30;;;;;;;6.40;3.80;;;;;;;3.22;100.00;99195.41;5010836;28;20036;-58
2021/12/08 00:05:57;;;;;;;4.47;3.10;;;;;;;3.23;100.00;99195.47;5010692;28;20022;-59
2021/12/08 00:08:27;;;;;;;7.83;3.50;;;;;;;3.25;100.00;99177.59;5010741;28;20026;-58
2021/12/08 00:13:24;;;;;;;6.10;3.40;;;;;;;3.28;100.00;99180.25;5010563;28;20498;-57
2021/12/08 00:15:53;;;;;;;5.97;3.50;;;;;;;3.31;100.00;99170.09;5010575;28;20478;-59
2021/12/08 00:18:23;;;;;;;5.77;3.43;;;;;;;3.32;100.00;99161.63;5010585;28;20056;-57
2021/12/08 00:20:48;;;;;;;5.57;3.87;;;;;;;3.33;100.00;99160.78;5010868;28;20101;-59
2021/12/08 00:23:15;;;;;;;7.67;3.90;;;;;;;3.35;100.00;99164.28;5010082;28;20040;-57
2021/12/08 00:25:42;;;;;;;6.27;3.43;;;;;;;3.39;100.00;99169.50;5010269;28;20125;-59
2021/12/08 00:28:08;;;;;;;6.07;4.33;;;;;;;3.42;100.00;99174.75;5010375;28;20545;-58
2021/12/08 00:30:37;;;;;;;8.80;3.70;;;;;;;3.42;100.00;99185.00;5010335;28;20033;-57
2021/12/08 00:33:04;;;;;;;6.00;3.50;;;;;;;3.46;100.00;99182.59;5010906;28;20430;-59
2021/12/08 00:35:29;;;;;;;7.57;3.90;;;;;;;3.48;100.00;99186.06;5009898;28;20117;-59
2021/12/08 00:37:56;;;;;;;5.67;3.90;;;;;;;3.53;100.00;99178.53;5010236;28;20048;-59
2021/12/08 00:40:22;;;;;;;3.60;3.30;;;;;;;3.58;100.00;99176.16;5010469;28;20044;-58
2021/12/08 00:42:48;;;;;;;5.03;3.80;;;;;;;3.64;100.00;99178.00;5010796;28;20064;-59
2021/12/08 00:45:15;;;;;;;6.63;3.60;;;;;;;3.71;100.00;99174.84;5010249;28;20204;-57
2021/12/08 00:47:41;;;;;;;5.93;3.67;;;;;;;3.75;100.00;99170.69;5010365;28;20028;-59
2021/12/08 00:50:10;;;;;;;6.90;3.30;;;;;;;3.79;100.00;99175.97;5010404;28;20034;-58
2021/12/08 00:52:36;;;;;;;4.90;3.07;;;;;;;3.85;100.00;99172.72;5010694;28;20217;-58
2021/12/08 00:55:05;;;;;;;7.20;3.47;;;;;;;3.89;100.00;99172.00;5010679;28;20036;-58
2021/12/08 00:57:30;;;;;;;5.87;3.10;;;;;;;3.94;100.00;99175.59;5010177;28;20092;-60
2021/12/08 00:59:55;;;;;;;3.70;2.90;;;;;;;3.96;100.00;99178.19;5010227;28;20039;-57
2021/12/08 01:02:21;;;;;;;5.17;2.80;;;;;;;3.97;100.00;99187.66;5010467;28;20033;-59
2021/12/08 01:04:46;;;;;;;4.17;3.03;;;;;;;4.01;100.00;99201.44;5009866;28;20185;-59
2021/12/08 01:07:12;;;;;;;3.80;2.80;;;;;;;4.05;100.00;99195.56;5010091;28;20428;-59
2021/12/08 01:09:37;;;;;;;4.37;2.77;;;;;;;4.08;100.00;99199.09;5010038;28;20030;-59
2021/12/08 01:12:04;;;;;;;3.90;2.57;;;;;;;4.10;100.00;99206.88;5009959;28;20034;-58
2021/12/08 01:14:31;;;;;;;4.17;2.73;;;;;;;4.15;100.00;99199.31;5010246;28;20251;-58
2021/12/08 01:16:57;;;;;;;3.30;3.00;;;;;;;4.17;100.00;99210.50;5010037;28;20022;-59
2021/12/08 01:19:22;;;;;;;2.87;2.20;;;;;;;4.19;100.00;99211.41;5009923;28;20053;-59
2021/12/08 01:21:48;;;;;;;4.10;2.50;;;;;;;4.20;100.00;99213.16;5010145;28;20026;-58
2021/12/08 01:24:14;;;;;;;3.10;2.57;;;;;;;4.28;100.00;99210.84;5010074;28;20128;-59
2021/12/08 01:26:39;;;;;;;4.17;2.37;;;;;;;4.30;100.00;99220.31;5010296;28;20092;-59
2021/12/08 01:29:07;;;;;;;4.43;2.23;;;;;;;4.31;100.00;99222.06;5009755;28;20033;-59
2021/12/08 01:31:32;;;;;;;3.00;2.70;;;;;;;4.33;100.00;99225.53;5010054;28;20504;-60
2021/12/08 01:33:57;;;;;;;3.67;2.53;;;;;;;4.36;100.00;99213.63;5011091;28;20112;-59
2021/12/08 01:36:23;;;;;;;4.80;2.80;;;;;;;4.38;100.00;99227.38;5013850;28;20109;-58
2021/12/08 01:38:48;;;;;;;3.63;2.47;;;;;;;4.40;100.00;99226.63;5013740;28;20033;-59
2021/12/08 01:41:14;;;;;;;5.77;2.60;;;;;;;4.43;100.00;99225.81;5013629;28;20029;-59
2021/12/08 01:45:56;;;;;;;4.10;2.33;;;;;;;4.46;100.00;99222.50;5013817;28;20430;-59
2021/12/08 01:46:25;;;;;;;2.63;2.30;;;;;;;4.48;100.00;99234.53;5013339;28;20037;-59
2021/12/08 01:48:51;;;;;;;5.80;2.80;;;;;;;4.48;100.00;99234.53;5013337;28;20084;-59
2021/12/08 01:51:18;;;;;;;6.03;2.23;;;;;;;4.50;100.00;99232.88;5013293;28;20026;-58
2021/12/08 01:53:49;;;;;;;4.23;2.50;;;;;;;4.51;100.00;99244.91;5013457;28;20022;-58
2021/12/08 01:56:15;;;;;;;5.10;2.20;;;;;;;4.51;100.00;99237.22;5013237;28;20029;-58
2021/12/08 01:58:41;;;;;;;4.80;1.80;;;;;;;4.53;100.00;99238.09;5013266;28;20101;-58
2021/12/08 02:01:12;;;;;;;3.73;1.87;;;;;;;4.57;100.00;99232.25;5013216;28;20026;-58
2021/12/08 02:03:39;;;;;;;5.68;2.38;;;;;;;4.59;100.00;99236.56;5012797;28;20030;-59
2021/12/08 02:06:07;;;;;;;4.40;2.00;;;;;;;4.61;100.00;99245.16;5013408;28;20026;-59
2021/12/08 02:08:33;;;;;;;5.40;2.27;;;;;;;4.62;100.00;99252.06;5012963;28;20065;-59
2021/12/08 02:11:00;;;;;;;4.20;1.53;;;;;;;4.67;100.00;99258.19;5012896;28;20030;-59
2021/12/08 02:13:27;;;;;;;4.47;1.73;;;;;;;4.70;100.00;99253.16;5012980;28;20137;-59
2021/12/08 02:15:53;;;;;;;6.50;1.83;;;;;;;4.71;100.00;99262.59;5012916;28;20034;-59
2021/12/08 02:18:18;;;;;;;7.17;2.03;;;;;;;4.72;100.00;99258.31;5012596;28;20026;-59
2021/12/08 02:20:47;;;;;;;2.70;1.43;;;;;;;4.73;100.00;99260.94;5012574;28;20076;-58
2021/12/08 02:23:13;;;;;;;5.83;1.60;;;;;;;4.74;100.00;99272.97;5013182;28;20509;-59
2021/12/08 02:25:39;;;;;;;5.30;2.00;;;;;;;4.74;100.00;99278.09;5012425;28;20175;-59
2021/12/08 02:28:08;;;;;;;4.50;1.70;;;;;;;4.74;100.00;99284.91;5012994;28;20030;-57
2021/12/08 02:49:08;;;;;;;5.80;1.50;;;;;;;4.78;100.00;99285.06;4992544;28;20045;-59
2021/12/08 02:51:36;;;;;;;6.03;1.60;;;;;;;4.78;100.00;99282.50;4992880;28;20030;-58
2021/12/08 02:54:02;;;;;;;5.50;1.35;;;;;;;4.77;100.00;99287.56;4992581;28;20037;-58
2021/12/08 02:56:28;;;;;;;7.43;1.63;;;;;;;4.77;100.00;99297.84;4992911;28;20026;-59
2021/12/08 02:58:53;;;;;;;3.63;1.60;;;;;;;4.75;100.00;99295.22;4992556;28;20029;-57
2021/12/08 03:01:18;;;;;;;4.70;2.00;;;;;;;4.76;100.00;99296.09;4992440;28;20126;-59
2021/12/08 03:03:44;;;;;;;3.73;1.33;;;;;;;4.75;100.00;99295.22;5000865;28;20354;-59
2021/12/08 03:06:12;;;;;;;5.00;1.77;;;;;;;4.73;100.00;99296.03;5012011;28;20042;-58
2021/12/08 03:08:37;;;;;;;5.30;2.20;;;;;;;4.71;100.00;99293.41;5011908;28;20164;-57
2021/12/08 03:11:03;;;;;;;4.97;1.80;;;;;;;4.71;100.00;99289.97;5011614;28;20116;-59
2021/12/08 03:13:37;;;;;;;7.23;2.20;;;;;;;4.68;100.00;99293.28;5011471;28;20029;-59
2021/12/08 03:16:04;;;;;;;5.10;2.03;;;;;;;4.69;100.00;99297.63;5011554;28;20038;-59
2021/12/08 03:18:35;;;;;;;7.33;2.50;;;;;;;4.69;100.00;99300.19;5011856;28;20065;-59
2021/12/08 03:24:36;;;;;;;4.95;1.95;;;;;;;4.76;100.00;99301.25;5011842;28;20049;-59
2021/12/08 03:27:09;;;;;;;9.25;2.08;;;;;;;4.85;100.00;99321.19;5011687;28;20033;-59
2021/12/08 03:29:50;;;;;;;6.83;1.73;;;;;;;4.87;100.00;99314.41;5011767;28;20489;-58
2021/12/08 03:32:27;;;;;;;9.07;1.80;;;;;;;4.85;100.00;99316.03;5011422;28;20037;-59
2021/12/08 03:34:52;;;;;;;5.15;1.25;;;;;;;4.83;100.00;99326.28;5011063;28;20030;-59
2021/12/08 03:37:23;;;;;;;7.80;1.80;;;;;;;4.82;100.00;99321.09;5011395;28;20028;-60
2021/12/08 03:39:50;;;;;;;8.07;1.73;;;;;;;4.82;100.00;99310.81;5011432;28;20382;-58
2021/12/08 03:42:17;;;;;;;5.82;1.50;;;;;;;4.79;100.00;99327.88;5011307;28;20017;-59
2021/12/08 03:44:42;;;;;;;7.30;1.70;;;;;;;4.75;100.00;99314.91;4997864;28;20033;-59
2021/12/08 03:47:14;;;;;;;6.23;1.30;;;;;;;4.74;100.00;99319.16;4991741;28;20026;-59
2021/12/08 03:49:40;;;;;;;8.60;1.80;;;;;;;4.72;100.00;99310.53;4991344;28;20105;-59
2021/12/08 03:52:05;;;;;;;3.10;1.23;;;;;;;4.70;100.00;99317.31;4991690;28;20114;-58
2021/12/08 03:54:31;;;;;;;5.27;1.60;;;;;;;4.66;100.00;99315.47;4991331;28;20509;-59
2021/12/08 03:56:57;;;;;;;5.93;1.43;;;;;;;4.61;100.00;99317.00;4990455;28;20023;-58
2021/12/08 03:59:23;;;;;;;6.03;1.37;;;;;;;4.58;100.00;99322.94;4991385;28;20031;-58
2021/12/08 04:01:48;;;;;;;5.20;1.63;;;;;;;4.53;100.00;99338.16;4991395;28;20040;-59
2021/12/08 04:04:14;;;;;;;5.00;1.40;;;;;;;4.50;100.00;99334.63;5005392;28;20470;-59
2021/12/08 04:09:14;;;;;;;6.28;1.40;;;;;;;4.42;100.00;99336.97;5011046;28;20072;-59
2021/12/08 04:11:39;;;;;;;4.60;1.17;;;;;;;4.39;100.00;99339.44;5010699;28;20034;-59
2021/12/08 04:14:09;;;;;;;6.53;1.67;;;;;;;4.33;100.00;99340.94;5011052;28;20022;-59
2021/12/08 04:16:42;;;;;;;5.83;1.50;;;;;;;4.29;100.00;99336.56;5010725;28;20026;-59
2021/12/08 04:19:09;;;;;;;9.13;1.80;;;;;;;4.27;100.00;99342.44;5010433;28;20080;-60
2021/12/08 04:21:35;;;;;;;6.90;1.60;;;;;;;4.23;100.00;99341.47;5010677;28;20018;-60
2021/12/08 04:24:01;;;;;;;8.43;1.50;;;;;;;4.21;100.00;99343.09;5010470;28;20028;-59
2021/12/08 04:26:34;;;;;;;6.80;1.70;;;;;;;4.17;100.00;99349.81;5010362;28;20201;-58
2021/12/08 04:29:00;;;;;;;5.40;1.50;;;;;;;4.16;100.00;99352.31;5010477;28;20033;-58
2021/12/08 04:31:29;;;;;;;5.50;1.50;;;;;;;4.14;100.00;99353.97;5010251;28;20026;-59
2021/12/08 04:34:00;;;;;;;7.70;1.80;;;;;;;4.12;100.00;99358.19;5010377;28;20112;-57
2021/12/08 04:36:42;;;;;;;12.35;2.00;;;;;;;4.10;100.00;99364.97;5010360;28;20025;-59
2021/12/08 04:39:15;;;;;;;5.57;1.60;;;;;;;4.08;100.00;99362.34;5010468;28;20115;-59
2021/12/08 04:41:46;;;;;;;5.67;1.80;;;;;;;4.06;100.00;99357.16;5010300;28;20026;-60
2021/12/08 04:44:40;;;;;;;;;;;;;;;4.04;100.00;99357.91;5010491;28;20041;-59
2021/12/08 04:47:19;;;;;;;9.53;2.93;;;;;;;4.02;100.00;99352.75;5009957;28;19941;-59
2021/12/08 04:53:08;;;;;;;4.68;1.38;;;;;;;3.99;100.00;99342.38;5010277;28;20132;-59
2021/12/08 05:08:42;;;;;;;4.77;1.23;;;;;;;3.84;100.00;99373.47;5009761;28;20060;-58
2021/12/08 05:11:20;;;;;;;6.73;1.20;;;;;;;3.88;100.00;99379.56;5009911;28;20026;-58
2021/12/08 05:13:49;;;;;;;5.37;1.73;;;;;;;3.87;100.00;99386.38;5010242;28;20105;-58
2021/12/08 05:16:14;;;;;;;6.87;1.60;;;;;;;3.91;100.00;99379.69;5009549;28;20026;-59
2021/12/08 05:18:44;;;;;;;4.37;1.50;;;;;;;3.92;100.00;99386.56;5009872;28;20156;-59
2021/12/08 05:21:25;;;;;;;5.77;1.33;;;;;;;3.93;100.00;99388.28;5009915;28;20022;-58
2021/12/08 05:24:29;;;;;;;4.25;1.40;;;;;;;3.93;100.00;99383.16;5009853;28;20045;-59
2021/12/08 05:27:06;;;;;;;9.40;1.87;;;;;;;3.91;100.00;99385.69;5009608;28;20542;-58
2021/12/08 05:29:43;;;;;;;6.27;1.50;;;;;;;3.92;100.00;99386.56;5009758;28;20088;-59
2021/12/08 05:32:10;;;;;;;5.53;1.47;;;;;;;3.92;100.00;99394.25;5009725;28;20030;-59
2021/12/08 05:34:36;;;;;;;5.70;1.70;;;;;;;3.92;100.00;99394.25;5009034;28;20041;-57
2021/12/08 05:37:04;;;;;;;10.57;1.70;;;;;;;3.92;100.00;99384.84;5008155;28;20030;-58
2021/12/08 05:39:30;;;;;;;9.37;1.70;;;;;;;3.90;100.00;99390.75;5009509;28;20104;-59
2021/12/08 05:42:02;;;;;;;10.07;2.40;;;;;;;3.90;100.00;99398.44;5009285;28;20405;-59
2021/12/08 05:44:27;;;;;;;;;;;;;;;3.88;100.00;99407.78;5009990;28;20026;-59
2021/12/08 05:46:57;;;;;;;5.57;1.53;;;;;;;3.87;100.00;99408.59;5007945;28;20004;-60
2021/12/08 05:49:23;;;;;;;8.47;2.10;;;;;;;3.84;100.00;99414.47;5007927;28;20075;-57
2021/12/08 05:51:51;;;;;;;10.30;1.77;;;;;;;3.82;100.00;99411.84;5009360;28;20053;-59
2021/12/08 05:54:30;;;;;;;5.80;2.00;;;;;;;3.81;100.00;99417.78;5009439;28;20061;-59
2021/12/08 05:56:57;;;;;;;7.83;1.80;;;;;;;3.81;100.00;99406.69;4989926;28;20030;-58
2021/12/08 05:59:24;;;;;;;10.20;1.83;;;;;;;3.79;100.00;99406.63;4989897;28;20044;-59
2021/12/08 06:01:59;;;;;;;8.33;2.20;;;;;;;3.75;100.00;99409.88;4989756;28;20057;-59
2021/12/08 06:04:29;;;;;;;8.40;2.10;;;;;;;3.71;100.00;99408.00;4990072;28;20494;-59
2021/12/08 06:06:56;;;;;;;8.83;1.93;;;;;;;3.69;100.00;99412.22;4989741;28;20410;-58
2021/12/08 06:09:23;;;;;;;8.70;1.80;;;;;;;3.65;100.00;99412.94;4990017;28;20041;-58
2021/12/08 06:11:50;;;;;;;14.20;2.07;;;;;;;3.65;100.00;99423.19;4989776;28;20038;-58
2021/12/08 06:14:19;;;;;;;5.77;1.60;;;;;;;3.64;100.00;99426.53;4990376;28;20026;-59
2021/12/08 06:16:47;;;;;;;10.60;2.57;;;;;;;3.64;100.00;99436.78;4989600;28;20029;-59
2021/12/08 06:19:15;;;;;;;7.23;1.93;;;;;;;3.65;100.00;99438.56;4989736;28;20030;-60
2021/12/08 06:21:41;;;;;;;5.40;1.67;;;;;;;3.64;100.00;99436.78;4994083;28;20106;-57
2021/12/08 06:24:11;;;;;;;11.33;2.97;;;;;;;3.64;100.00;99447.03;5012730;28;20056;-59
2021/12/08 06:26:38;;;;;;;9.60;1.90;;;;;;;3.64;100.00;99452.16;5014675;28;20073;-59
2021/12/08 06:29:06;;;;;;;9.63;1.87;;;;;;;3.65;100.00;99447.09;5012700;28;20037;-59
2021/12/08 06:31:33;;;;;;;6.30;1.80;;;;;;;3.68;100.00;99449.78;5012231;28;20034;-58
2021/12/08 06:33:59;;;;;;;7.13;1.93;;;;;;;3.68;100.00;99454.91;5012439;28;20026;-59
2021/12/08 06:36:30;;;;;;;8.93;2.07;;;;;;;3.69;100.00;99458.31;5012166;28;20021;-59
2021/12/08 06:38:56;;;;;;;5.38;2.25;;;;;;;3.71;100.00;99459.25;5012069;28;20042;-59
2021/12/08 06:41:28;;;;;;;10.67;2.20;;;;;;;3.71;100.00;99461.81;5012521;28;20466;-59
2021/12/08 06:43:59;;;;;;;10.07;1.90;;;;;;;3.74;100.00;99471.34;5012397;28;20576;-58
2021/12/08 06:46:25;;;;;;;8.80;2.08;;;;;;;3.71;100.00;99469.50;5012459;28;20497;-59
2021/12/08 06:48:54;;;;;;;9.63;2.30;;;;;;;3.71;100.00;99449.00;5012265;28;20022;-58
2021/12/08 06:51:29;;;;;;;10.60;1.83;;;;;;;3.69;100.00;99456.66;5011759;28;20096;-60
2021/12/08 06:54:03;;;;;;;10.43;2.20;;;;;;;3.65;100.00;99459.03;5012501;28;20033;-63
2021/12/08 06:56:40;;;;;;;7.23;2.10;;;;;;;3.62;100.00;99458.94;5012082;28;20117;-59
2021/12/08 06:59:15;;;;;;;12.13;2.53;;;;;;;3.60;100.00;99467.41;5012346;28;20021;-58
2021/12/08 07:01:56;;;;;;;9.37;2.40;;;;;;;3.55;100.00;99461.25;5026997;28;20029;-58
2021/12/08 07:05:10;;;;;;;8.47;2.10;;;;;;;3.50;100.00;99473.00;5012029;28;20033;-59
2021/12/08 07:07:38;;;;;;;8.77;2.20;;;;;;;3.44;100.00;99475.31;5011354;28;20030;-59
2021/12/08 07:10:19;;;;;;;8.13;2.47;;;;;;;3.42;100.00;99467.56;5011602;28;20033;-59
2021/12/08 07:12:50;;;;;;;8.60;1.92;;;;;;;3.38;100.00;99483.66;5010291;28;20140;-58
2021/12/08 07:15:28;;;;;;;8.80;2.40;;;;;;;3.35;100.00;99491.19;5011697;28;20040;-59
2021/12/08 07:17:58;;;;;;;6.47;2.00;;;;;;;3.32;100.00;99502.22;5011708;28;20467;-59
2021/12/08 07:20:42;;;;;;;9.93;2.38;;;;;;;3.32;100.00;99507.34;5011367;28;20449;-59
2021/12/08 07:23:19;;;;;;;8.47;2.20;;;;;;;3.34;100.00;99502.28;5010007;28;20117;-57
2021/12/08 07:25:46;;;;;;;8.90;2.53;;;;;;;3.31;100.00;99504.72;5011437;28;20108;-59
2021/12/08 07:28:14;;;;;;;8.73;2.70;;;;;;;3.24;100.00;99519.81;5009053;28;20037;-60
2021/12/08 07:30:46;;;;;;;7.93;2.40;;;;;;;3.21;100.00;99526.50;5008410;28;20049;-59
2021/12/08 07:33:11;;;;;;;8.80;2.30;;;;;;;3.22;100.00;99526.56;5008817;28;20033;-59
2021/12/08 07:35:44;;;;;;;9.33;2.17;;;;;;;3.20;100.00;99533.28;5008550;28;20080;-58
2021/12/08 07:38:13;;;;;;;8.70;1.80;;;;;;;3.21;100.00;99540.19;5011215;28;20041;-59
2021/12/08 07:40:48;;;;;;;9.90;2.20;;;;;;;3.20;100.00;99537.56;5010291;28;20544;-59
2021/12/08 07:43:20;;;;;;;7.77;2.00;;;;;;;3.17;100.00;99542.53;5006742;28;20033;-59
2021/12/08 07:45:56;;;;;;;26.57;2.57;;;;;;;3.13;100.00;99544.09;5010927;28;20034;-58
2021/12/08 07:48:25;;;;;;;7.93;2.20;;;;;;;3.14;100.00;99550.09;5011429;28;20037;-59
2021/12/08 07:51:00;;;;;;;10.87;1.80;;;;;;;3.15;100.00;99560.41;5010381;28;20026;-58
2021/12/08 07:53:28;;;;;;;10.80;2.77;;;;;;;3.17;100.00;99540.88;5010982;28;20409;-59
2021/12/08 07:56:00;;;;;;;8.73;1.97;;;;;;;3.19;100.00;99546.03;5010670;28;20506;-59
2021/12/08 07:58:26;;;;;;;5.77;1.60;;;;;;;3.18;100.00;99559.66;5010493;28;20036;-60
2021/12/08 08:00:56;;;;;;;10.30;1.73;;;;;;;3.20;100.00;99556.34;5010850;28;20033;-57
2021/12/08 08:03:22;;;;;;;5.43;1.90;;;;;;;3.24;100.00;99544.53;5009954;28;20029;-59
2021/12/08 08:05:51;;;;;;;9.37;1.60;;;;;;;3.25;100.00;99551.44;5010621;28;20052;-59
2021/12/08 08:08:19;;;;;;;8.07;1.93;;;;;;;3.29;100.00;99550.72;5010896;28;20034;-59
2021/12/08 08:10:51;;;;;;;7.87;1.80;;;;;;;3.30;100.00;99557.63;5009894;28;20034;-59
2021/12/08 08:13:18;;;;;;;12.03;1.90;;;;;;;3.33;100.00;99549.16;5010265;28;20046;-58
2021/12/08 08:15:48;;;;;;;7.97;1.90;;;;;;;3.35;100.00;99557.78;5009359;28;20034;-59
2021/12/08 08:18:18;;;;;;;14.63;2.57;;;;;;;3.34;100.00;99559.50;5010977;28;20052;-59
2021/12/08 08:20:50;;;;;;;6.40;1.40;;;;;;;3.36;100.00;99559.56;5010264;28;20030;-58
2021/12/08 08:23:18;;;;;;;13.00;2.50;;;;;;;3.38;100.00;99557.06;5010881;28;20026;-58
2021/12/08 08:25:45;;;;;;;11.03;3.03;;;;;;;3.40;100.00;99560.56;5010147;28;20030;-59
2021/12/08 08:28:12;;;;;;;5.37;1.27;;;;;;;3.38;100.00;99557.94;5008637;28;20041;-58
2021/12/08 08:30:42;;;;;;;9.10;1.83;;;;;;;3.43;100.00;99560.66;5009499;28;20026;-58
2021/12/08 08:33:08;;;;;;;3.60;1.13;;;;;;;3.44;100.00;99558.16;5009675;28;20375;-59
2021/12/08 08:35:40;;;;;;;5.40;1.20;;;;;;;3.46;100.00;99565.91;5008898;28;20161;-58
2021/12/08 08:38:10;;;;;;;6.73;1.43;;;;;;;3.49;100.00;99550.66;5010116;28;20474;-57
2021/12/08 08:40:40;;;;;;;7.20;1.77;;;;;;;3.52;100.00;99539.66;5009964;28;20037;-58
2021/12/08 08:43:08;;;;;;;5.63;1.70;;;;;;;3.52;100.00;99539.66;5009611;28;20022;-59
2021/12/08 08:45:52;;;;;;;5.60;1.57;;;;;;;3.57;99.26;99531.38;5010063;28;20104;-59
2021/12/08 08:48:29;;;;;;;6.87;1.80;;;;;;;3.57;98.38;99523.69;5009926;28;20041;-58
2021/12/08 08:51:04;;;;;;;7.43;1.73;;;;;;;3.62;98.21;99533.25;5009804;28;20100;-57
2021/12/08 08:53:34;;;;;;;4.77;1.40;;;;;;;3.68;98.74;99526.66;5010333;28;20421;-58
2021/12/08 08:56:11;;;;;;;7.30;1.85;;;;;;;3.68;98.20;99526.66;5009541;28;20033;-58
2021/12/08 08:58:43;;;;;;;6.10;1.30;;;;;;;3.68;98.21;99528.34;5009972;28;20108;-58
2021/12/08 09:01:15;;;;;;;6.97;1.53;;;;;;;3.64;98.46;99539.28;5005626;28;20073;-58
2021/12/08 09:03:42;;;;;;;;;;;;;;;3.65;97.98;99546.16;5009869;28;20030;-59
2021/12/08 09:06:14;;;;;;;8.23;1.57;;;;;;;3.66;96.82;99543.66;5009373;28;20447;-59
2021/12/08 09:08:41;;;;;;;4.87;1.40;;;;;;;3.69;96.46;99559.16;5010181;28;20061;-58
2021/12/08 09:11:25;;;;;;;6.50;1.30;;;;;;;3.71;96.93;99551.50;5009773;28;20574;-58
2021/12/08 09:14:16;;;;;;;8.20;1.67;;;;;;;3.72;97.29;99563.53;4990387;28;20181;-58
2021/12/08 09:16:50;;;;;;;5.67;1.20;;;;;;;3.72;97.73;99558.41;4988887;28;20061;-59
2021/12/08 09:19:22;;;;;;;6.83;1.50;;;;;;;3.72;97.80;99558.41;4989968;28;20088;-57
2021/12/08 09:22:00;;;;;;;;;;;;;;;3.73;96.67;99549.88;4989034;28;20033;-58
2021/12/08 09:24:45;;;;;;;5.47;1.20;;;;;;;3.76;96.56;99554.28;5002004;28;19971;-58
2021/12/08 09:27:14;;;;;;;4.93;1.23;;;;;;;3.78;96.18;99571.44;5008544;28;20135;-58
2021/12/08 09:29:48;;;;;;;5.63;1.60;;;;;;;3.80;95.52;99576.63;5009501;28;20034;-58
2021/12/08 09:32:21;;;;;;;5.07;1.20;;;;;;;3.83;95.49;99576.78;4989849;28;20039;-58
2021/12/08 09:34:58;;;;;;;4.87;1.27;;;;;;;3.83;96.85;99589.59;5004761;28;20490;-59
2021/12/08 09:37:28;;;;;;;6.87;1.43;;;;;;;3.85;97.02;99593.06;5010050;28;20032;-58
2021/12/08 09:40:33;;;;;;;4.30;1.87;;;;;;;3.89;96.28;99582.13;5008695;28;20113;-59
2021/12/08 09:43:02;;;;;;;6.30;1.50;;;;;;;3.94;96.63;99590.00;5005140;28;20530;-59
2021/12/08 09:45:37;;;;;;;5.93;1.40;;;;;;;3.97;95.72;99579.88;5006886;28;20061;-58
2021/12/08 09:48:05;;;;;;;7.83;1.60;;;;;;;3.96;95.17;99573.84;5006145;28;20145;-58
2021/12/08 09:50:31;;;;;;;5.83;1.40;;;;;;;4.00;95.32;99584.22;5005423;28;20172;-58
2021/12/08 09:52:57;;;;;;;6.23;1.63;;;;;;;4.03;95.65;99584.38;5006265;28;20057;-58
2021/12/08 09:55:22;;;;;;;5.40;1.90;;;;;;;4.10;95.48;99570.06;5006626;28;20044;-59
2021/12/08 09:57:48;;;;;;;7.90;1.50;;;;;;;4.16;94.05;99565.16;5010675;28;20497;-59
2021/12/08 10:00:23;;;;;;;6.73;1.30;;;;;;;4.19;93.50;99560.19;5010201;28;20128;-58
2021/12/08 10:02:54;;;;;;;8.30;1.50;;;;;;;4.25;93.57;99556.94;5010378;28;20069;-57
2021/12/08 10:05:19;;;;;;;5.03;1.50;;;;;;;4.31;94.21;99559.75;5010261;28;20034;-59
2021/12/08 10:07:45;;;;;;;4.63;1.30;;;;;;;4.37;94.62;99556.53;5009881;28;20060;-58
2021/12/08 10:10:13;;;;;;;5.53;1.60;;;;;;;4.41;93.16;99550.69;5009816;28;20460;-59
2021/12/08 10:12:39;;;;;;;7.20;1.50;;;;;;;4.42;92.71;99552.44;5009971;28;20125;-59
2021/12/08 10:15:08;;;;;;;6.10;1.30;;;;;;;4.42;92.61;99548.19;5005167;28;20482;-59
2021/12/08 10:17:34;;;;;;;5.40;1.60;;;;;;;4.48;92.43;99550.09;5006518;28;20058;-58
2021/12/08 10:20:27;;;;;;;4.80;1.17;;;;;;;4.53;92.48;99547.72;5009541;28;20123;-58
2021/12/08 10:23:10;;;;;;;5.13;1.47;;;;;;;4.55;91.96;99528.97;5009752;28;20037;-58
2021/12/08 10:25:41;;;;;;;6.37;1.33;;;;;;;4.57;92.29;99527.34;5008556;28;20230;-58
2021/12/08 10:28:17;;;;;;;3.53;1.17;;;;;;;4.61;91.41;99532.56;5011338;28;20088;-58
2021/12/08 10:30:47;;;;;;;5.77;1.03;;;;;;;4.65;92.80;99535.31;5012622;28;20043;-57
2021/12/08 10:34:22;;;;;;;5.37;1.03;;;;;;;4.72;92.86;99535.50;5012275;28;20067;-57
2021/12/08 10:38:59;;;;;;;3.40;1.17;;;;;;;4.72;91.46;99528.69;5009439;28;20076;-59
2021/12/08 10:41:24;;;;;;;5.93;1.30;;;;;;;4.73;90.75;99529.56;5011964;28;20022;-58
2021/12/08 10:44:00;;;;;;;3.70;1.17;;;;;;;4.75;90.57;99515.09;5011137;28;20022;-59
2021/12/08 10:46:34;;;;;;;4.53;1.40;;;;;;;4.75;90.43;99531.34;5009568;28;20021;-59
2021/12/08 10:54:35;;;;;;;4.47;1.10;;;;;;;4.78;90.72;99525.47;5011881;28;20048;-57
2021/12/08 10:57:04;;;;;;;3.87;1.30;;;;;;;4.80;91.84;99529.81;5012078;28;20057;-57
2021/12/08 10:59:53;;;;;;;4.83;1.20;;;;;;;4.79;91.29;99532.34;5011744;28;20509;-57
2021/12/08 11:02:47;;;;;;;5.67;1.17;;;;;;;4.80;90.97;99534.09;5012270;28;20396;-56
2021/12/08 11:05:24;;;;;;;6.55;1.80;;;;;;;4.83;91.64;99543.59;5011389;28;20033;-58
2021/12/08 11:08:20;;;;;;;3.78;1.30;;;;;;;4.88;91.26;99562.59;5010903;28;20458;-58
2021/12/08 11:10:53;;;;;;;6.53;1.30;;;;;;;4.89;91.00;99559.22;5011379;28;20033;-59
2021/12/08 11:13:25;;;;;;;2.13;1.00;;;;;;;4.96;91.29;99574.00;5012033;28;20022;-58
2021/12/08 11:16:16;;;;;;;7.33;1.50;;;;;;;4.98;89.16;99585.22;5012019;28;20037;-58
2021/12/08 11:18:49;;;;;;;4.93;1.42;;;;;;;5.02;90.03;99587.06;5011824;28;20367;-59
2021/12/08 11:21:25;;;;;;;6.97;1.48;;;;;;;5.09;89.52;99582.13;5011305;28;20490;-58
2021/12/08 11:23:53;;;;;;;5.13;1.60;;;;;;;5.21;88.97;99582.56;5010671;28;20026;-59
2021/12/08 11:26:26;;;;;;;4.03;1.20;;;;;;;5.27;89.31;99576.75;5011189;28;20078;-59
2021/12/08 11:29:03;;;;;;;7.88;1.23;;;;;;;5.40;89.97;99588.28;5010775;28;20033;-58
2021/12/08 11:31:53;;;;;;;5.53;1.17;;;;;;;5.49;89.45;99592.84;5010269;28;20056;-58
2021/12/08 11:34:26;;;;;;;4.97;0.90;;;;;;;5.45;87.91;99591.88;4969439;28;20146;-58
2021/12/08 11:37:00;;;;;;;4.65;1.05;;;;;;;5.45;88.05;99597.03;4969441;28;20038;-59
2021/12/08 11:39:33;;;;;;;4.10;1.25;;;;;;;5.36;88.25;99596.75;4969607;28;20039;-58
2021/12/08 11:42:06;;;;;;;3.10;1.30;;;;;;;5.36;88.51;99596.75;4968736;28;20117;-57
2021/12/08 11:44:34;;;;;;;2.15;1.10;;;;;;;5.29;89.32;99613.63;4969333;28;20043;-59
2021/12/08 11:47:07;;;;;;;5.22;1.40;;;;;;;5.28;90.24;99614.44;4969121;28;20027;-58
2021/12/08 11:49:39;;;;;;;3.03;1.03;;;;;;;5.28;90.44;99617.03;4969393;28;20085;-59
2021/12/08 11:52:10;;;;;;;3.38;1.00;;;;;;;5.26;90.03;99614.41;4968664;28;20502;-59
2021/12/08 11:54:40;;;;;;;;;;;;;;;5.24;88.96;99623.75;4968166;28;20118;-58
2021/12/08 11:57:18;;;;;;;6.88;1.77;;;;;;;5.26;90.30;99619.53;4966745;28;19914;-59
2021/12/08 11:59:47;;;;;;;6.25;1.27;;;;;;;5.21;88.49;99626.22;4968630;28;20030;-58
2021/12/08 12:02:14;;;;;;;3.77;1.43;;;;;;;5.22;89.84;99633.09;4968708;28;20031;-58
2021/12/08 12:04:43;;;;;;;3.80;1.05;;;;;;;5.18;89.19;99633.81;4968898;28;20602;-57
2021/12/08 12:07:14;;;;;;;5.90;1.97;;;;;;;5.16;88.18;99627.75;4968949;28;20432;-58
2021/12/08 12:09:41;;;;;;;6.35;1.45;;;;;;;5.16;89.05;99636.31;4968643;28;20086;-59
2021/12/08 12:12:07;;;;;;;12.13;2.25;;;;;;;5.14;89.16;99648.25;5002766;28;20064;-59
2021/12/08 12:14:33;;;;;;;7.13;1.20;;;;;;;5.12;88.62;99649.91;5010799;28;20030;-58
2021/12/08 12:17:00;;;;;;;17.70;3.17;;;;;;;5.12;89.21;99649.00;5010753;28;20057;-58
2021/12/08 12:19:31;;;;;;;18.35;2.95;;;;;;;5.12;90.06;99659.28;5009351;28;20033;-58
2021/12/08 12:22:33;;;;;;;3.92;1.42;;;;;;;5.08;89.43;99662.56;5010194;28;20050;-58
2021/12/08 12:25:10;;;;;;;4.32;1.10;;;;;;;5.07;89.48;99665.97;4997774;28;20116;-58
2021/12/08 12:27:45;;;;;;;4.13;1.10;;;;;;;5.08;90.89;99677.97;5010613;28;20054;-57
2021/12/08 12:30:37;;;;;;;6.38;1.33;;;;;;;5.05;90.14;99682.16;5010475;28;20100;-58
2021/12/08 12:33:15;;;;;;;7.70;1.67;;;;;;;5.05;90.45;99679.59;5009047;28;20069;-58
2021/12/08 12:35:48;;;;;;;3.42;1.00;;;;;;;5.08;90.79;99677.97;5010737;28;20108;-57
2021/12/08 12:38:14;;;;;;;1.83;0.98;;;;;;;5.09;91.66;99685.72;5010242;28;20030;-58
2021/12/08 12:40:46;;;;;;;3.38;1.10;;;;;;;5.11;90.25;99694.34;5010345;28;20026;-56
2021/12/08 12:43:23;;;;;;;4.78;1.00;;;;;;;5.13;89.36;99694.41;5010255;28;20161;-58
2021/12/08 12:46:23;;;;;;;4.30;1.15;;;;;;;5.13;90.20;99695.28;5009074;28;20552;-58